createdAt,value
2022-11-06T00:02:08.306Z,7.26
2022-11-06T00:04:34.968Z,7.24
2022-11-06T00:07:01.904Z,7.23
2022-11-06T00:09:28.569Z,7.23
2022-11-06T00:11:55.361Z,7.20
2022-11-06T00:14:21.992Z,7.15
2022-11-06T00:16:48.781Z,7.12
2022-11-06T00:19:15.759Z,7.13
2022-11-06T00:21:45.641Z,7.12
2022-11-06T00:24:13.879Z,7.12
2022-11-06T00:26:40.798Z,7.11
2022-11-06T00:29:13.596Z,7.10
2022-11-06T00:31:40.233Z,7.12
2022-11-06T00:34:07.833Z,7.11
2022-11-06T00:36:34.673Z,7.07
2022-11-06T00:39:01.495Z,7.07
2022-11-06T00:41:28.645Z,7.06
2022-11-06T00:43:58.434Z,7.06
2022-11-06T00:46:25.533Z,7.05
2022-11-06T00:48:53.196Z,7.04
2022-11-06T00:51:22.758Z,7.02
2022-11-06T00:53:54.176Z,7.03
2022-11-06T00:56:21.108Z,7.04
2022-11-06T00:58:48.357Z,7.04
2022-11-06T01:01:23.745Z,7.07
2022-11-06T01:03:55.763Z,7.08
2022-11-06T01:06:26.490Z,7.09
2022-11-06T01:08:53.524Z,7.09
2022-11-06T01:11:59.496Z,7.10
2022-11-06T01:14:23.975Z,7.12
2022-11-06T01:16:50.717Z,7.10
2022-11-06T01:19:18.967Z,7.13
2022-11-06T01:21:47.167Z,7.11
2022-11-06T01:24:16.671Z,7.11
2022-11-06T01:27:04.915Z,7.12
2022-11-06T01:29:30.364Z,7.10
2022-11-06T01:31:56.987Z,7.10
2022-11-06T01:34:23.701Z,7.10
2022-11-06T01:36:50.361Z,7.10
2022-11-06T01:39:17.243Z,7.09
2022-11-06T01:41:46.685Z,7.11
2022-11-06T01:44:41.290Z,7.10
2022-11-06T01:47:28.838Z,7.09
2022-11-06T01:49:58.852Z,7.06
2022-11-06T01:52:27.162Z,7.03
2022-11-06T01:54:57.779Z,7.07
2022-11-06T01:57:24.679Z,7.08
2022-11-06T01:59:52.487Z,7.09
2022-11-06T02:02:19.464Z,7.07
2022-11-06T02:04:48.497Z,7.04
2022-11-06T02:07:16.256Z,7.08
2022-11-06T02:09:43.047Z,7.06
2022-11-06T02:12:12.691Z,7.05
2022-11-06T02:15:13.496Z,7.08
2022-11-06T02:18:02.572Z,7.08
2022-11-06T02:20:41.440Z,7.06
2022-11-06T02:23:32.975Z,7.09
2022-11-06T02:26:05.667Z,7.09
2022-11-06T02:28:40.075Z,7.09
2022-11-06T02:31:12.299Z,7.10
2022-11-06T02:33:44.914Z,7.10
2022-11-06T02:36:17.551Z,7.12
2022-11-06T02:38:48.117Z,7.11
2022-11-06T02:41:20.819Z,7.15
2022-11-06T02:43:50.377Z,7.14
2022-11-06T02:46:41.195Z,7.16
2022-11-06T02:49:15.331Z,7.16
2022-11-06T02:51:46.727Z,7.14
2022-11-06T02:54:14.541Z,7.19
2022-11-06T02:56:43.292Z,7.19
2022-11-06T02:59:14.489Z,7.17
2022-11-06T03:01:50.283Z,7.20
2022-11-06T03:04:38.179Z,7.21
2022-11-06T03:07:38.542Z,7.21
2022-11-06T03:10:06.756Z,7.19
2022-11-06T03:12:39.399Z,7.16
2022-11-06T03:15:18.210Z,7.20
2022-11-06T03:17:50.365Z,7.17
2022-11-06T03:20:27.331Z,7.13
2022-11-06T03:22:58.308Z,7.14
2022-11-06T03:25:45.076Z,7.15
2022-11-06T03:28:18.725Z,7.00
2022-11-06T03:30:51.002Z,7.02
2022-11-06T03:33:23.610Z,7.05
2022-11-06T03:35:58.323Z,6.99
2022-11-06T03:38:28.242Z,6.92
2022-11-06T03:41:08.742Z,6.94
2022-11-06T03:43:36.575Z,6.93
2022-11-06T03:46:06.738Z,6.95
2022-11-06T03:48:48.044Z,7.02
2022-11-06T03:51:18.542Z,7.02
2022-11-06T03:53:51.664Z,7.06
2022-11-06T03:57:11.985Z,6.76
2022-11-06T03:59:43.767Z,6.84
2022-11-06T04:02:13.235Z,6.94
2022-11-06T04:05:15.379Z,7.01
2022-11-06T04:08:05.773Z,6.88
2022-11-06T04:10:51.624Z,6.60
2022-11-06T04:13:39.906Z,6.71
2022-11-06T04:16:08.469Z,6.91
2022-11-06T04:18:35.167Z,6.93
2022-11-06T04:21:23.065Z,6.96
2022-11-06T04:24:35.263Z,6.93
2022-11-06T04:27:11.722Z,6.87
2022-11-06T04:30:05.038Z,6.92
2022-11-06T04:32:53.425Z,6.93
2022-11-06T04:35:34.488Z,6.94
2022-11-06T04:38:07.156Z,6.97
2022-11-06T04:40:56.584Z,7.01
2022-11-06T04:43:38.853Z,6.96
2022-11-06T04:46:06.937Z,6.94
2022-11-06T04:48:33.811Z,6.90
2022-11-06T04:51:03.695Z,6.90
2022-11-06T04:53:31.286Z,6.90
2022-11-06T04:56:02.540Z,6.74
2022-11-06T04:58:29.208Z,6.72
2022-11-06T05:00:55.972Z,6.84
2022-11-06T05:03:22.674Z,6.82
2022-11-06T05:05:49.465Z,6.90
2022-11-06T05:08:18.794Z,6.78
2022-11-06T05:10:45.689Z,6.90
2022-11-06T05:13:12.923Z,6.92
2022-11-06T05:15:39.596Z,6.95
2022-11-06T05:18:06.520Z,7.00
2022-11-06T05:20:33.656Z,7.04
2022-11-06T05:23:00.990Z,6.96
2022-11-06T05:25:29.548Z,6.68
2022-11-06T05:27:56.676Z,6.83
2022-11-06T05:30:24.454Z,6.64
2022-11-06T05:32:51.328Z,6.62
2022-11-06T05:35:19.660Z,6.81
2022-11-06T05:37:46.986Z,6.90
2022-11-06T05:40:14.114Z,6.92
2022-11-06T05:42:41.555Z,6.96
2022-11-06T05:45:09.095Z,6.94
2022-11-06T05:47:35.790Z,6.92
2022-11-06T05:50:02.485Z,6.92
2022-11-06T05:52:29.187Z,6.93
2022-11-06T05:54:55.847Z,6.91
2022-11-06T05:57:22.562Z,6.91
2022-11-06T05:59:49.275Z,6.91
2022-11-06T06:02:16.017Z,6.91
2022-11-06T06:04:42.722Z,6.85
2022-11-06T06:07:09.519Z,6.86
2022-11-06T06:09:36.275Z,6.87
2022-11-06T06:12:02.993Z,6.86
2022-11-06T06:14:29.648Z,6.81
2022-11-06T06:16:56.297Z,6.83
2022-11-06T06:19:23.024Z,6.83
2022-11-06T06:21:49.858Z,6.79
2022-11-06T06:24:16.609Z,6.82
2022-11-06T06:26:43.688Z,6.88
2022-11-06T06:29:10.380Z,6.92
2022-11-06T06:31:37.158Z,6.76
2022-11-06T06:34:03.827Z,6.75
2022-11-06T06:36:30.664Z,6.56
2022-11-06T06:38:57.468Z,6.32
2022-11-06T06:41:24.275Z,6.15
2022-11-06T06:43:51.135Z,6.28
2022-11-06T06:46:17.846Z,6.47
2022-11-06T06:48:44.473Z,6.48
2022-11-06T06:51:11.178Z,6.60
2022-11-06T06:53:37.928Z,6.63
2022-11-06T06:56:04.890Z,6.33
2022-11-06T06:58:31.922Z,6.47
2022-11-06T07:01:02.688Z,6.43
2022-11-06T07:03:29.428Z,6.26
2022-11-06T07:05:58.313Z,6.46
2022-11-06T07:08:26.604Z,6.25
2022-11-06T07:10:53.302Z,6.20
2022-11-06T07:13:19.951Z,6.48
2022-11-06T07:15:46.663Z,6.58
2022-11-06T07:18:13.535Z,6.79
2022-11-06T07:20:40.399Z,6.55
2022-11-06T07:23:07.914Z,6.82
2022-11-06T07:25:34.758Z,6.97
2022-11-06T07:28:03.144Z,6.75
2022-11-06T07:30:30.628Z,6.61
2022-11-06T07:33:00.626Z,6.60
2022-11-06T07:35:28.018Z,6.90
2022-11-06T07:37:54.726Z,6.91
2022-11-06T07:40:21.403Z,6.75
2022-11-06T07:42:48.084Z,6.54
2022-11-06T07:45:16.220Z,6.83
2022-11-06T07:47:42.886Z,6.90
2022-11-06T07:50:09.594Z,7.05
2022-11-06T07:52:36.226Z,6.98
2022-11-06T07:55:03.043Z,6.96
2022-11-06T07:57:29.764Z,6.98
2022-11-06T07:59:56.681Z,6.97
2022-11-06T08:02:23.549Z,7.09
2022-11-06T08:04:50.304Z,7.41
2022-11-06T08:07:17.009Z,7.51
2022-11-06T08:09:43.687Z,7.41
2022-11-06T08:12:10.492Z,7.39
2022-11-06T08:14:41.216Z,7.63
2022-11-06T08:17:09.670Z,7.85
2022-11-06T08:19:39.337Z,8.15
2022-11-06T08:22:06.024Z,8.27
2022-11-06T08:24:32.723Z,8.73
2022-11-06T08:26:59.746Z,9.10
2022-11-06T08:29:26.493Z,8.76
2022-11-06T08:31:53.323Z,8.78
2022-11-06T08:34:21.462Z,8.85
2022-11-06T08:36:52.176Z,9.28
2022-11-06T08:39:18.849Z,9.38
2022-11-06T08:41:45.751Z,9.57
2022-11-06T08:44:12.640Z,9.17
2022-11-06T08:46:39.510Z,9.55
2022-11-06T08:49:06.336Z,10.00
2022-11-06T08:51:34.232Z,10.15
2022-11-06T08:54:01.157Z,10.07
2022-11-06T08:56:27.970Z,9.87
2022-11-06T08:58:55.878Z,10.01
2022-11-06T09:01:24.352Z,10.29
2022-11-06T09:03:51.208Z,10.93
2022-11-06T09:06:18.159Z,11.18
2022-11-06T09:08:45.034Z,11.49
2022-11-06T09:11:12.211Z,12.17
2022-11-06T09:13:38.887Z,12.12
2022-11-06T09:16:10.030Z,12.53
2022-11-06T09:18:39.734Z,12.48
2022-11-06T09:21:06.785Z,12.79
2022-11-06T09:23:33.562Z,13.24
2022-11-06T09:26:00.334Z,13.74
2022-11-06T09:28:26.992Z,13.60
2022-11-06T09:30:55.472Z,13.79
2022-11-06T09:33:22.534Z,14.28
2022-11-06T09:35:49.448Z,14.63
2022-11-06T09:38:16.184Z,14.98
2022-11-06T09:40:48.910Z,15.15
2022-11-06T09:44:02.932Z,15.47
2022-11-06T09:46:32.631Z,15.69
2022-11-06T09:49:03.848Z,15.61
2022-11-06T09:51:37.819Z,15.68
2022-11-06T09:54:12.593Z,15.90
2022-11-06T09:56:41.814Z,15.96
2022-11-06T09:59:12.795Z,16.13
2022-11-06T10:01:46.172Z,16.08
2022-11-06T10:04:22.163Z,16.22
2022-11-06T10:06:48.895Z,15.38
2022-11-06T10:09:17.729Z,15.32
2022-11-06T10:12:02.169Z,14.96
2022-11-06T10:15:08.745Z,15.11
2022-11-06T10:17:35.524Z,15.28
2022-11-06T10:20:13.331Z,15.23
2022-11-06T10:22:41.579Z,15.42
2022-11-06T10:25:25.139Z,15.57
2022-11-06T10:28:01.872Z,15.22
2022-11-06T10:30:39.041Z,15.57
2022-11-06T10:33:20.659Z,15.40
2022-11-06T10:35:54.271Z,15.20
2022-11-06T10:38:41.470Z,14.98
2022-11-06T10:41:16.599Z,15.43
2022-11-06T10:43:49.389Z,15.60
2022-11-06T10:46:41.243Z,14.75
2022-11-06T10:49:39.843Z,14.37
2022-11-06T10:52:25.199Z,14.55
2022-11-06T10:55:01.279Z,14.86
2022-11-06T10:57:33.912Z,14.98
2022-11-06T11:00:00.927Z,14.77
2022-11-06T11:02:34.051Z,14.24
2022-11-06T11:05:00.961Z,14.25
2022-11-06T11:07:32.540Z,14.53
2022-11-06T11:10:23.414Z,13.85
2022-11-06T11:12:51.342Z,13.58
2022-11-06T11:15:19.797Z,13.62
2022-11-06T11:18:13.434Z,13.32
2022-11-06T11:20:43.720Z,13.37
2022-11-06T11:23:15.448Z,13.38
2022-11-06T11:25:47.683Z,13.40
2022-11-06T11:28:23.200Z,13.56
2022-11-06T11:30:55.286Z,13.41
2022-11-06T11:33:24.705Z,13.04
2022-11-06T11:35:53.766Z,12.64
2022-11-06T11:38:22.451Z,12.39
2022-11-06T11:40:49.663Z,12.45
2022-11-06T11:43:30.268Z,12.53
2022-11-06T11:46:06.123Z,12.40
2022-11-06T11:48:45.201Z,12.33
2022-11-06T11:51:37.162Z,12.50
2022-11-06T11:54:13.119Z,12.41
2022-11-06T11:57:08.037Z,12.39
2022-11-06T11:59:46.443Z,12.16
2022-11-06T12:02:25.339Z,12.17
2022-11-06T12:04:59.876Z,12.34
2022-11-06T12:07:29.609Z,12.32
2022-11-06T12:09:57.823Z,12.42
2022-11-06T12:12:31.365Z,12.29
2022-11-06T12:15:19.368Z,12.41
2022-11-06T12:18:07.317Z,12.32
2022-11-06T12:21:01.875Z,12.18
2022-11-06T12:23:34.888Z,12.21
2022-11-06T12:26:09.765Z,12.27
2022-11-06T12:28:38.438Z,12.42
2022-11-06T12:31:20.296Z,12.46
2022-11-06T12:34:06.567Z,12.50
2022-11-06T12:36:39.539Z,12.48
2022-11-06T12:39:16.876Z,12.51
2022-11-06T12:41:47.238Z,12.47
2022-11-06T12:44:15.133Z,12.55
2022-11-06T12:46:50.935Z,12.54
2022-11-06T12:49:55.643Z,12.63
2022-11-06T12:52:25.432Z,12.65
2022-11-06T12:55:01.402Z,12.63
2022-11-06T12:57:46.666Z,12.76
2022-11-06T13:00:18.551Z,12.50
2022-11-06T13:03:30.302Z,12.43
2022-11-06T13:06:30.968Z,12.46
2022-11-06T13:09:02.818Z,12.52
2022-11-06T13:11:45.506Z,12.71
2022-11-06T13:14:24.873Z,12.70
2022-11-06T13:17:05.804Z,12.68
2022-11-06T13:20:11.149Z,12.79
2022-11-06T13:22:56.657Z,12.62
2022-11-06T13:25:36.647Z,12.75
2022-11-06T13:28:26.995Z,12.78
2022-11-06T13:30:54.611Z,12.61
2022-11-06T13:33:30.539Z,12.49
2022-11-06T13:35:59.154Z,12.55
2022-11-06T13:38:35.672Z,12.84
2022-11-06T13:41:07.151Z,12.87
2022-11-06T13:43:38.634Z,12.74
2022-11-06T13:46:26.827Z,12.63
2022-11-06T13:49:09.401Z,12.60
2022-11-06T13:51:51.675Z,12.53
2022-11-06T13:54:21.083Z,12.46
2022-11-06T13:57:21.865Z,12.59
2022-11-06T13:59:51.812Z,12.57
2022-11-06T14:02:49.214Z,12.59
2022-11-06T14:05:40.978Z,12.48
2022-11-06T14:08:25.223Z,12.65
2022-11-06T14:10:56.590Z,12.46
2022-11-06T14:13:34.961Z,12.48
2022-11-06T14:16:21.568Z,12.70
2022-11-06T14:19:14.911Z,12.77
2022-11-06T14:21:50.095Z,12.86
2022-11-06T14:24:19.909Z,12.92
2022-11-06T14:26:48.993Z,12.70
2022-11-06T14:29:30.783Z,12.64
2022-11-06T14:32:00.479Z,12.48
2022-11-06T14:34:29.732Z,12.37
2022-11-06T14:36:56.605Z,12.31
2022-11-06T14:39:53.057Z,12.40
2022-11-06T14:42:30.602Z,12.40
2022-11-06T14:44:59.743Z,12.51
2022-11-06T14:47:56.920Z,12.59
2022-11-06T14:50:37.542Z,12.27
2022-11-06T14:53:25.998Z,12.26
2022-11-06T14:56:01.313Z,12.38
2022-11-06T14:58:36.848Z,12.45
2022-11-06T15:01:09.805Z,12.59
2022-11-06T15:03:56.714Z,12.41
2022-11-06T15:06:32.557Z,12.25
2022-11-06T15:09:12.900Z,12.45
2022-11-06T15:11:47.427Z,12.32
2022-11-06T15:14:14.871Z,12.42
2022-11-06T15:16:50.837Z,12.39
2022-11-06T15:19:23.770Z,12.34
2022-11-06T15:22:14.992Z,12.42
2022-11-06T15:24:49.601Z,12.42
2022-11-06T15:27:19.030Z,12.38
2022-11-06T15:29:49.712Z,12.35
2022-11-06T15:32:19.676Z,12.24
2022-11-06T15:35:07.853Z,12.08
2022-11-06T15:37:50.846Z,11.93
2022-11-06T15:40:23.253Z,11.97
2022-11-06T15:42:50.102Z,12.00
2022-11-06T15:45:16.857Z,11.94
2022-11-06T15:48:20.792Z,11.92
2022-11-06T15:50:47.721Z,11.85
2022-11-06T15:53:15.421Z,11.87
2022-11-06T15:56:07.952Z,11.83
2022-11-06T15:58:37.543Z,11.73
2022-11-06T16:01:06.448Z,11.61
2022-11-06T16:03:44.813Z,11.60
2022-11-06T16:06:11.666Z,11.53
2022-11-06T16:08:39.227Z,11.45
2022-11-06T16:11:13.101Z,11.39
2022-11-06T16:13:40.385Z,11.33
2022-11-06T16:16:31.647Z,11.25
2022-11-06T16:18:58.407Z,11.16
2022-11-06T16:21:28.376Z,11.07
2022-11-06T16:24:02.319Z,11.00
2022-11-06T16:26:32.977Z,10.94
2022-11-06T16:29:00.723Z,10.87
2022-11-06T16:31:30.351Z,10.79
2022-11-06T16:34:04.003Z,10.72
2022-11-06T16:36:50.112Z,10.69
2022-11-06T16:39:16.939Z,10.63
2022-11-06T16:42:20.508Z,10.58
2022-11-06T16:44:51.719Z,10.48
2022-11-06T16:47:20.208Z,10.45
2022-11-06T16:49:53.496Z,10.39
2022-11-06T16:52:25.814Z,10.32
2022-11-06T16:54:56.251Z,10.27
2022-11-06T16:57:26.132Z,10.19
2022-11-06T17:00:02.348Z,10.16
2022-11-06T17:02:32.664Z,10.11
2022-11-06T17:05:17.937Z,10.10
2022-11-06T17:07:45.753Z,10.02
2022-11-06T17:10:34.199Z,9.99
2022-11-06T17:13:22.135Z,9.92
2022-11-06T17:16:00.286Z,9.88
2022-11-06T17:18:32.160Z,9.84
2022-11-06T17:21:06.925Z,9.76
2022-11-06T17:23:34.218Z,9.80
2022-11-06T17:26:13.522Z,9.79
2022-11-06T17:28:40.597Z,9.75
2022-11-06T17:31:16.949Z,9.73
2022-11-06T17:33:46.301Z,9.69
2022-11-06T17:36:27.330Z,9.66
2022-11-06T17:38:55.424Z,9.64
2022-11-06T17:41:32.696Z,9.63
2022-11-06T17:44:03.775Z,9.63
2022-11-06T17:46:33.559Z,9.61
2022-11-06T17:49:02.468Z,9.63
2022-11-06T17:51:48.382Z,9.60
2022-11-06T17:54:15.709Z,9.58
2022-11-06T17:56:44.039Z,9.57
2022-11-06T17:59:12.166Z,9.54
2022-11-06T18:01:39.056Z,9.54
2022-11-06T18:04:07.231Z,9.50
2022-11-06T18:06:33.982Z,9.48
2022-11-06T18:09:01.970Z,9.46
2022-11-06T18:11:29.125Z,9.43
2022-11-06T18:13:55.934Z,9.39
2022-11-06T18:16:28.197Z,9.33
2022-11-06T18:18:55.929Z,9.34
2022-11-06T18:21:24.078Z,9.32
2022-11-06T18:23:50.862Z,9.30
2022-11-06T18:26:18.589Z,9.24
2022-11-06T18:28:45.255Z,9.22
2022-11-06T18:31:11.920Z,9.24
2022-11-06T18:33:38.689Z,9.24
2022-11-06T18:36:07.586Z,9.26
2022-11-06T18:38:34.902Z,9.25
2022-11-06T18:41:09.529Z,9.26
2022-11-06T18:43:36.339Z,9.26
2022-11-06T18:46:11.113Z,9.21
2022-11-06T18:48:38.239Z,9.22
2022-11-06T18:51:09.614Z,9.19
2022-11-06T18:53:37.574Z,9.22
2022-11-06T18:56:04.614Z,9.23
2022-11-06T18:58:31.528Z,9.19
2022-11-06T19:01:05.022Z,9.17
2022-11-06T19:03:33.170Z,9.12
2022-11-06T19:06:00.281Z,9.15
2022-11-06T19:08:27.444Z,9.11
2022-11-06T19:10:54.276Z,9.02
2022-11-06T19:13:24.066Z,9.02
2022-11-06T19:15:50.987Z,9.03
2022-11-06T19:18:17.938Z,8.94
2022-11-06T19:20:45.901Z,8.94
2022-11-06T19:23:14.518Z,8.98
2022-11-06T19:25:42.014Z,8.94
2022-11-06T19:28:09.650Z,8.96
2022-11-06T19:30:36.799Z,9.00
2022-11-06T19:33:03.770Z,8.91
2022-11-06T19:35:32.057Z,8.88
2022-11-06T19:38:00.822Z,8.89
2022-11-06T19:40:31.979Z,9.01
2022-11-06T19:43:00.952Z,8.97
2022-11-06T19:45:28.329Z,9.04
2022-11-06T19:47:55.056Z,9.02
2022-11-06T19:50:39.227Z,8.99
2022-11-06T19:53:08.543Z,8.93
2022-11-06T19:55:39.138Z,9.06
2022-11-06T19:58:05.854Z,8.95
2022-11-06T20:00:32.659Z,9.10
2022-11-06T20:02:59.445Z,9.12
2022-11-06T20:05:26.198Z,9.23
2022-11-06T20:07:52.902Z,9.28
2022-11-06T20:10:20.657Z,8.99
2022-11-06T20:12:47.690Z,8.95
2022-11-06T20:15:18.763Z,9.12
2022-11-06T20:17:51.975Z,9.07
2022-11-06T20:23:14.717Z,9.23
2022-11-06T20:25:45.300Z,9.07
2022-11-06T20:28:12.290Z,9.15
2022-11-06T20:31:01.516Z,9.13
2022-11-06T20:33:37.917Z,9.16
2022-11-06T20:36:36.048Z,9.24
2022-11-06T20:39:19.018Z,9.43
2022-11-06T20:42:00.580Z,9.37
2022-11-06T20:45:09.008Z,9.44
2022-11-06T20:47:36.747Z,9.48
2022-11-06T20:50:03.760Z,9.48
2022-11-06T20:52:31.702Z,9.50
2022-11-06T20:55:00.032Z,9.55
2022-11-06T20:57:26.939Z,9.56
2022-11-06T20:59:53.739Z,9.58
2022-11-06T21:02:20.572Z,9.54
2022-11-06T21:04:47.450Z,9.51
2022-11-06T21:07:14.381Z,9.56
2022-11-06T21:09:41.154Z,9.54
2022-11-06T21:12:11.579Z,9.47
2022-11-06T21:14:38.223Z,9.48
2022-11-06T21:17:05.142Z,9.34
2022-11-06T21:19:33.261Z,9.28
2022-11-06T21:22:00.013Z,9.24
2022-11-06T21:24:27.074Z,9.29
2022-11-06T21:26:55.991Z,9.20
2022-11-06T21:29:23.905Z,9.14
2022-11-06T21:31:51.272Z,9.06
2022-11-06T21:34:20.089Z,9.16
2022-11-06T21:36:47.364Z,9.12
2022-11-06T21:39:17.700Z,9.14
2022-11-06T21:41:44.923Z,8.90
2022-11-06T21:44:17.254Z,9.10
2022-11-06T21:46:45.591Z,9.07
2022-11-06T21:49:13.926Z,9.06
2022-11-06T21:51:40.822Z,8.95
2022-11-06T21:54:26.137Z,8.93
2022-11-06T21:56:54.643Z,9.04
2022-11-06T21:59:25.287Z,9.13
2022-11-06T22:01:52.284Z,9.06
2022-11-06T22:04:19.097Z,9.17
2022-11-06T22:06:45.755Z,9.17
2022-11-06T22:09:14.163Z,9.02
2022-11-06T22:11:42.884Z,9.19
2022-11-06T22:14:16.691Z,9.08
2022-11-06T22:16:45.902Z,8.99
2022-11-06T22:19:13.680Z,8.91
2022-11-06T22:21:40.775Z,8.97
2022-11-06T22:24:07.950Z,9.06
2022-11-06T22:26:35.593Z,8.96
2022-11-06T22:29:06.223Z,9.02
2022-11-06T22:31:33.272Z,9.20
2022-11-06T22:34:00.308Z,9.23
2022-11-06T22:36:27.233Z,9.14
2022-11-06T22:38:54.059Z,9.30
2022-11-06T22:41:23.644Z,9.46
2022-11-06T22:43:50.689Z,9.51
2022-11-06T22:46:20.118Z,9.12
2022-11-06T22:48:47.312Z,9.16
2022-11-06T22:51:16.292Z,9.01
2022-11-06T22:53:43.090Z,9.01
2022-11-06T22:56:10.157Z,9.09
2022-11-06T22:58:36.807Z,9.11
2022-11-06T23:01:03.783Z,9.28
2022-11-06T23:03:31.161Z,9.16
2022-11-06T23:05:58.445Z,9.02
2022-11-06T23:08:26.331Z,8.80
2022-11-06T23:10:54.456Z,8.88
2022-11-06T23:13:21.931Z,9.13
2022-11-06T23:15:48.976Z,9.13
2022-11-06T23:18:16.034Z,9.00
2022-11-06T23:20:42.729Z,8.86
2022-11-06T23:23:09.484Z,8.81
2022-11-06T23:25:36.339Z,8.87
2022-11-06T23:28:03.185Z,8.83
2022-11-06T23:30:33.001Z,8.92
2022-11-06T23:32:59.932Z,8.86
2022-11-06T23:35:32.248Z,8.88
2022-11-06T23:37:59.595Z,8.89
2022-11-06T23:40:26.682Z,8.95
2022-11-06T23:42:56.210Z,9.00
2022-11-06T23:45:41.413Z,8.84
2022-11-06T23:48:13.424Z,9.01
2022-11-06T23:50:40.980Z,8.98
2022-11-06T23:53:07.739Z,9.09
2022-11-06T23:55:34.425Z,9.26
2022-11-06T23:58:01.186Z,9.25
